Time;durP1;ratioP1;P1;durP2;ratioP2;P2;SDS_P1;SDS_P2;PMS_P1;PMS_P2;Temp;Humidity;BMP_temperature;BMP_pressure;BME280_temperature;BME280_humidity;BME280_pressure;Samples;Min_cycle;Max_cycle;Signal;HPM_P1;HPM_P2
2022/01/26 00:06:35;;;;;;;100.68;32.65;;;2.70;99.90;;;;;;5030911;28;20049;-80
2022/01/26 00:09:03;;;;;;;106.47;33.50;;;2.70;99.90;;;;;;5030537;28;20043;-83
2022/01/26 00:11:31;;;;;;;101.50;32.47;;;2.70;99.90;;;;;;5031001;28;20118;-79
2022/01/26 00:13:58;;;;;;;110.38;32.55;;;2.70;99.90;;;;;;5030780;28;20049;-77
2022/01/26 00:16:35;;;;;;;119.35;34.08;;;2.70;99.90;;;;;;5029577;28;20089;-84
2022/01/26 00:19:02;;;;;;;111.53;34.40;;;2.70;99.90;;;;;;5030845;28;20068;-79
2022/01/26 00:21:51;;;;;;;109.95;34.72;;;2.70;99.90;;;;;;5030696;28;20106;-79
2022/01/26 00:29:19;;;;;;;99.32;31.30;;;2.70;99.90;;;;;;5031074;28;20108;-81
2022/01/26 00:43:02;;;;;;;117.32;34.40;;;2.60;99.90;;;;;;5030696;28;20063;-79
2022/01/26 00:45:34;;;;;;;103.80;32.55;;;2.60;99.90;;;;;;5026391;28;20058;-82
2022/01/26 00:48:04;;;;;;;101.03;32.25;;;2.60;99.90;;;;;;5026758;28;20049;-81
2022/01/26 00:50:31;;;;;;;105.85;32.58;;;2.60;99.90;;;;;;5030509;28;20124;-78
2022/01/26 00:52:57;;;;;;;102.35;33.65;;;2.60;99.90;;;;;;5030121;28;20491;-86
2022/01/26 00:55:23;;;;;;;101.20;32.40;;;2.60;99.90;;;;;;5029880;28;20068;-85
2022/01/26 00:57:49;;;;;;;106.78;33.08;;;2.60;99.90;;;;;;5030365;28;20041;-78
2022/01/26 01:00:19;;;;;;;95.18;30.67;;;2.60;99.90;;;;;;5030106;28;20048;-78
2022/01/26 01:02:44;;;;;;;104.22;33.63;;;2.60;99.90;;;;;;5030249;28;20128;-78
2022/01/26 01:05:18;;;;;;;104.45;32.30;;;2.60;99.90;;;;;;5029892;28;20152;-79
2022/01/26 01:07:45;;;;;;;108.07;33.45;;;2.90;99.90;;;;;;5012158;28;20060;-85
2022/01/26 01:10:12;;;;;;;121.18;33.58;;;2.60;99.90;;;;;;5029888;28;20053;-84
2022/01/26 01:12:42;;;;;;;100.43;31.90;;;2.70;99.90;;;;;;5030067;28;20049;-79
2022/01/26 01:15:08;;;;;;;105.88;32.90;;;2.60;99.90;;;;;;5029787;28;20121;-81
2022/01/26 01:17:40;;;;;;;108.35;33.28;;;2.60;99.90;;;;;;5030033;28;20471;-78
2022/01/26 01:20:31;;;;;;;107.38;31.45;;;3.10;99.90;;;;;;5029715;28;20087;-79
2022/01/26 01:28:26;;;;;;;99.82;31.70;;;2.60;99.90;;;;;;5029493;28;20053;-79
2022/01/26 01:31:00;;;;;;;107.10;33.03;;;2.50;99.90;;;;;;5029642;28;20064;-80
2022/01/26 01:33:32;;;;;;;105.30;30.87;;;3.00;99.90;;;;;;5029788;28;20111;-79
2022/01/26 01:35:59;;;;;;;100.70;31.98;;;2.50;99.90;;;;;;5011905;28;20061;-78
2022/01/26 01:38:28;;;;;;;102.90;29.77;;;2.50;99.90;;;;;;5029747;28;20896;-81
2022/01/26 01:40:54;;;;;;;95.75;28.13;;;2.50;99.90;;;;;;5029372;28;20557;-80
2022/01/26 01:43:22;;;;;;;119.30;31.70;;;2.60;99.90;;;;;;5029544;28;20045;-78
2022/01/26 01:45:51;;;;;;;96.22;30.35;;;2.50;99.90;;;;;;5011268;28;20052;-81
2022/01/26 01:48:26;;;;;;;100.68;30.23;;;2.50;99.90;;;;;;5029668;28;20682;-82
2022/01/26 01:50:53;;;;;;;106.40;31.40;;;2.50;99.90;;;;;;5029596;28;20041;-84
2022/01/26 01:53:19;;;;;;;96.25;32.13;;;2.50;99.90;;;;;;5029549;28;20124;-80
2022/01/26 01:55:49;;;;;;;115.32;31.98;;;2.50;99.90;;;;;;5029292;28;20053;-77
2022/01/26 01:58:18;;;;;;;107.88;34.72;;;2.50;99.90;;;;;;5029343;28;20053;-83
2022/01/26 02:00:45;;;;;;;107.50;30.90;;;2.50;99.90;;;;;;5032121;28;20076;-79
2022/01/26 02:03:11;;;;;;;100.93;30.55;;;2.50;99.90;;;;;;5032821;28;20124;-79
2022/01/26 02:05:36;;;;;;;111.70;32.70;;;2.50;99.90;;;;;;5014766;28;20141;-78
2022/01/26 02:08:03;;;;;;;108.63;32.85;;;2.50;99.90;;;;;;5015700;28;20057;-82
2022/01/26 02:10:30;;;;;;;117.05;32.88;;;2.50;99.90;;;;;;5015074;28;20041;-79
2022/01/26 02:12:59;;;;;;;107.47;31.65;;;2.50;99.90;;;;;;5032300;28;20045;-80
2022/01/26 02:15:33;;;;;;;112.38;32.13;;;2.50;99.90;;;;;;5032891;28;20377;-77
2022/01/26 02:56:06;;;;;;;107.45;33.92;;;2.40;99.90;;;;;;4971002;28;20090;-79
2022/01/26 03:06:59;;;;;;;102.38;31.95;;;2.40;99.90;;;;;;5006673;28;20046;-78
2022/01/26 03:09:30;;;;;;;111.63;32.80;;;2.40;99.90;;;;;;5012214;28;20053;-76
2022/01/26 03:11:58;;;;;;;109.30;32.78;;;2.40;99.90;;;;;;5029974;28;20064;-82
2022/01/26 03:14:35;;;;;;;107.00;32.25;;;2.40;99.90;;;;;;5031213;28;20050;-85
2022/01/26 03:17:13;;;;;;;102.03;31.92;;;2.40;99.90;;;;;;5031879;28;20060;-76
2022/01/26 03:19:46;;;;;;;99.50;31.55;;;2.40;99.90;;;;;;5032134;28;20042;-82
2022/01/26 03:33:11;;;;;;;96.68;30.52;;;2.40;99.90;;;;;;4950377;29;20147;-80
2022/01/26 03:35:51;;;;;;;100.78;33.13;;;2.40;99.90;;;;;;4950881;29;20153;-81
2022/01/26 03:38:24;;;;;;;101.35;31.17;;;2.40;99.90;;;;;;4970188;28;20058;-80
2022/01/26 03:41:08;;;;;;;101.18;30.95;;;2.40;99.90;;;;;;4954020;28;20486;-77
2022/01/26 03:43:33;;;;;;;92.72;30.15;;;2.40;99.90;;;;;;4953054;28;20058;-84
2022/01/26 03:45:59;;;;;;;94.45;29.95;;;2.40;99.90;;;;;;4970044;28;20061;-78
2022/01/26 03:48:25;;;;;;;92.35;28.08;;;2.40;99.90;;;;;;4969480;28;20502;-84
2022/01/26 03:50:50;;;;;;;84.70;29.52;;;2.40;99.90;;;;;;4954112;28;20065;-78
2022/01/26 03:53:16;;;;;;;86.47;27.75;;;2.40;99.90;;;;;;4969901;28;20116;-85
2022/01/26 03:55:41;;;;;;;71.20;25.25;;;2.40;99.90;;;;;;4969844;28;20122;-77
2022/01/26 03:58:07;;;;;;;89.50;30.17;;;2.40;99.90;;;;;;4969100;28;20069;-81
2022/01/26 04:00:33;;;;;;;89.35;29.45;;;2.40;99.90;;;;;;4969577;28;20057;-83
2022/01/26 04:02:58;;;;;;;90.15;29.83;;;3.30;99.90;;;;;;4969571;28;20120;-78
2022/01/26 04:05:25;;;;;;;84.05;29.77;;;2.40;99.90;;;;;;4969703;28;20046;-83
2022/01/26 04:07:56;;;;;;;84.82;29.85;;;2.40;99.90;;;;;;4969462;28;20058;-79
2022/01/26 04:10:37;;;;;;;82.07;30.10;;;2.40;99.90;;;;;;5009151;28;20053;-87
2022/01/26 04:13:03;;;;;;;82.28;28.05;;;2.40;99.90;;;;;;5021336;28;20049;-82
2022/01/26 04:15:32;;;;;;;89.28;29.67;;;2.40;99.90;;;;;;5030807;28;20045;-84
2022/01/26 04:17:58;;;;;;;80.45;29.38;;;2.40;99.90;;;;;;5030716;28;20052;-79
2022/01/26 04:20:28;;;;;;;79.93;28.52;;;2.40;99.90;;;;;;5030757;28;20050;-80
2022/01/26 04:23:07;;;;;;;77.53;27.13;;;2.40;99.90;;;;;;5029397;28;20401;-79
2022/01/26 04:25:33;;;;;;;80.45;28.13;;;2.40;99.90;;;;;;5030618;28;20103;-84
2022/01/26 04:28:04;;;;;;;84.18;29.35;;;2.40;99.90;;;;;;5030395;28;20055;-82
2022/01/26 04:30:30;;;;;;;72.82;27.42;;;2.40;99.90;;;;;;5030315;28;20426;-79
2022/01/26 04:33:00;;;;;;;87.22;30.17;;;2.40;99.90;;;;;;5030392;28;20045;-81
2022/01/26 04:35:25;;;;;;;77.15;26.40;;;2.40;99.90;;;;;;5029991;28;20125;-81
2022/01/26 04:40:20;;;;;;;75.70;26.02;;;2.40;99.90;;;;;;5012549;28;20808;-78
2022/01/26 04:42:55;;;;;;;76.13;26.02;;;2.40;99.90;;;;;;5029898;28;20092;-76
2022/01/26 04:45:21;;;;;;;76.18;26.00;;;2.40;99.90;;;;;;5026967;28;20103;-82
2022/01/26 04:47:47;;;;;;;77.30;26.75;;;2.30;99.90;;;;;;5030225;28;20057;-82
2022/01/26 04:50:13;;;;;;;71.38;26.55;;;2.30;99.90;;;;;;5030036;28;20063;-79
2022/01/26 04:52:40;;;;;;;74.47;27.80;;;2.50;99.90;;;;;;5030051;28;20128;-82
2022/01/26 04:55:06;;;;;;;77.80;26.73;;;2.30;99.90;;;;;;5030724;28;20404;-83
2022/01/26 04:57:32;;;;;;;74.95;25.52;;;2.30;99.90;;;;;;5030384;28;20068;-85
2022/01/26 04:59:58;;;;;;;69.05;24.88;;;2.30;99.90;;;;;;5029609;28;20914;-86
2022/01/26 05:02:23;;;;;;;71.95;25.98;;;2.30;99.90;;;;;;5011880;28;20477;-83
2022/01/26 05:04:49;;;;;;;67.55;25.17;;;2.30;99.90;;;;;;5012094;28;20061;-78
2022/01/26 05:07:15;;;;;;;70.97;25.77;;;2.30;99.90;;;;;;5029614;28;20072;-78
2022/01/26 05:09:41;;;;;;;75.28;25.63;;;2.30;99.90;;;;;;5029902;28;20473;-78
2022/01/26 05:12:07;;;;;;;70.75;23.33;;;2.30;99.90;;;;;;5029973;28;20046;-82
2022/01/26 05:14:33;;;;;;;74.95;25.40;;;2.30;99.90;;;;;;5029648;28;20412;-79
2022/01/26 05:16:58;;;;;;;72.95;23.98;;;2.30;99.90;;;;;;5030244;28;20052;-83
2022/01/26 05:19:24;;;;;;;72.22;24.95;;;2.30;99.90;;;;;;5021719;28;20124;-87
2022/01/26 05:21:50;;;;;;;76.00;27.15;;;2.30;99.90;;;;;;5029819;28;20038;-81
2022/01/26 05:24:16;;;;;;;69.53;24.17;;;2.30;99.90;;;;;;5029363;28;20503;-77
2022/01/26 05:26:41;;;;;;;78.20;25.52;;;2.30;99.90;;;;;;5044784;28;20053;-83
2022/01/26 05:29:07;;;;;;;73.47;22.92;;;2.30;99.90;;;;;;5029914;28;20045;-88
2022/01/26 05:31:33;;;;;;;78.70;25.55;;;2.30;99.90;;;;;;5029475;28;20041;-79
2022/01/26 05:33:59;;;;;;;84.15;26.92;;;2.30;99.90;;;;;;5031503;28;20049;-82
2022/01/26 05:36:24;;;;;;;76.97;23.98;;;2.20;99.90;;;;;;5033747;28;20049;-78
2022/01/26 05:38:50;;;;;;;68.13;23.63;;;2.20;99.90;;;;;;5033545;28;20427;-79
2022/01/26 05:41:16;;;;;;;70.13;23.55;;;2.20;99.90;;;;;;5015555;28;20057;-81
2022/01/26 05:43:41;;;;;;;67.30;23.63;;;2.20;99.90;;;;;;5029588;28;20053;-82
2022/01/26 05:46:21;;;;;;;73.07;24.50;;;2.30;99.90;;;;;;5013076;28;20153;-83
2022/01/26 05:48:48;;;;;;;72.60;23.95;;;2.20;99.90;;;;;;5015568;28;20068;-86
2022/01/26 05:51:15;;;;;;;71.93;24.70;;;2.20;99.90;;;;;;5033520;28;20090;-80
2022/01/26 05:53:41;;;;;;;70.75;24.25;;;2.20;99.90;;;;;;5033374;28;20129;-78
2022/01/26 05:56:08;;;;;;;81.60;25.33;;;2.20;99.90;;;;;;5033350;28;20065;-82
2022/01/26 05:58:34;;;;;;;70.35;23.42;;;2.20;99.90;;;;;;5033046;28;20049;-78
2022/01/26 06:01:00;;;;;;;76.10;25.73;;;2.20;99.90;;;;;;5032748;28;20549;-80
2022/01/26 06:03:28;;;;;;;67.05;23.35;;;2.20;99.90;;;;;;5033283;28;20049;-78
2022/01/26 06:05:54;;;;;;;80.30;25.33;;;2.20;99.90;;;;;;5032842;28;20052;-77
2022/01/26 06:08:23;;;;;;;75.70;25.10;;;2.20;99.90;;;;;;5014972;28;20049;-84
2022/01/26 06:10:55;;;;;;;80.22;25.13;;;2.20;99.90;;;;;;5014727;28;20051;-79
2022/01/26 06:13:20;;;;;;;78.28;25.80;;;2.20;99.90;;;;;;5032897;28;20048;-79
2022/01/26 06:15:47;;;;;;;75.00;25.35;;;2.20;99.90;;;;;;5032352;28;20049;-81
2022/01/26 06:18:13;;;;;;;78.00;25.40;;;2.20;99.90;;;;;;5033272;28;20041;-86
2022/01/26 06:20:39;;;;;;;73.05;24.92;;;2.20;99.90;;;;;;5033196;28;20108;-78
2022/01/26 06:23:06;;;;;;;70.60;25.60;;;2.20;99.90;;;;;;5032932;28;20071;-82
2022/01/26 06:25:33;;;;;;;69.05;24.38;;;2.20;99.90;;;;;;5032981;28;20042;-86
2022/01/26 06:28:00;;;;;;;68.78;24.85;;;2.20;99.90;;;;;;5032537;28;20045;-83
2022/01/26 06:30:26;;;;;;;73.32;24.77;;;2.20;99.90;;;;;;5014878;28;20495;-80
2022/01/26 06:32:52;;;;;;;71.63;24.02;;;2.20;99.90;;;;;;5032642;28;20045;-78
2022/01/26 06:35:18;;;;;;;71.20;24.08;;;2.20;99.90;;;;;;5032367;28;20099;-78
2022/01/26 06:37:45;;;;;;;77.50;23.75;;;2.20;99.90;;;;;;5032492;28;20408;-86
2022/01/26 06:40:11;;;;;;;73.22;25.92;;;2.20;99.90;;;;;;5032481;28;20049;-78
2022/01/26 06:42:53;;;;;;;82.13;27.80;;;2.20;99.90;;;;;;5032486;28;20050;-82
2022/01/26 06:45:23;;;;;;;68.47;25.30;;;2.20;99.90;;;;;;5028217;28;20049;-81
2022/01/26 06:48:40;;;;;;;75.57;26.52;;;2.20;99.90;;;;;;5032149;28;20584;-86
2022/01/26 06:50:41;;;;;;;74.70;25.50;;;2.20;99.90;;;;;;5029880;28;20052;-81
2022/01/26 06:53:07;;;;;;;71.82;25.13;;;2.20;99.90;;;;;;5032345;28;20049;-85
2022/01/26 06:55:35;;;;;;;74.00;27.15;;;2.20;99.90;;;;;;5014664;28;20751;-86
2022/01/26 06:58:01;;;;;;;78.72;27.00;;;2.20;99.90;;;;;;5031989;28;20046;-83
2022/01/26 07:00:26;;;;;;;77.15;26.23;;;2.20;99.90;;;;;;5031941;28;20416;-85
2022/01/26 07:02:54;;;;;;;77.55;27.13;;;2.80;99.90;;;;;;5032059;28;20107;-80
2022/01/26 07:05:20;;;;;;;70.38;23.92;;;2.20;99.90;;;;;;5014504;28;20061;-83
2022/01/26 07:07:46;;;;;;;78.75;27.88;;;2.90;99.90;;;;;;5031851;28;20050;-78
2022/01/26 07:10:12;;;;;;;87.63;30.55;;;2.30;99.90;;;;;;5031661;28;20053;-81
2022/01/26 07:12:37;;;;;;;77.78;27.95;;;2.30;99.90;;;;;;5031893;28;20048;-82
2022/01/26 07:22:57;;;;;;;89.38;31.92;;;2.30;99.90;;;;;;5031804;28;20419;-86
2022/01/26 07:25:23;;;;;;;80.47;30.50;;;2.30;99.90;;;;;;5031658;28;20045;-81
2022/01/26 07:27:50;;;;;;;87.32;29.73;;;2.30;99.90;;;;;;5013772;28;20049;-82
2022/01/26 07:30:16;;;;;;;94.88;31.35;;;2.30;99.90;;;;;;5031241;28;20053;-80
2022/01/26 07:32:42;;;;;;;90.30;31.38;;;2.30;99.90;;;;;;5013498;28;20045;-79
2022/01/26 07:35:09;;;;;;;84.30;31.00;;;2.30;99.90;;;;;;5031409;28;20056;-84
2022/01/26 07:37:34;;;;;;;78.18;29.90;;;2.30;99.90;;;;;;5031565;28;20041;-80
2022/01/26 07:40:06;;;;;;;91.53;30.17;;;2.30;99.90;;;;;;5013349;28;20064;-79
2022/01/26 07:42:35;;;;;;;90.05;31.92;;;2.30;99.90;;;;;;5031396;28;20096;-82
2022/01/26 07:45:05;;;;;;;91.55;32.30;;;2.30;99.90;;;;;;5030656;28;20044;-79
2022/01/26 07:47:31;;;;;;;89.97;30.63;;;2.30;99.90;;;;;;5030370;28;20218;-80
2022/01/26 07:50:04;;;;;;;97.22;32.92;;;2.40;99.90;;;;;;5031214;28;20053;-80
2022/01/26 07:52:34;;;;;;;103.75;34.45;;;3.00;99.90;;;;;;5031002;28;20041;-81
2022/01/26 07:55:00;;;;;;;94.47;34.67;;;2.40;99.90;;;;;;5012253;28;20057;-77
2022/01/26 07:57:26;;;;;;;100.03;35.75;;;2.40;99.90;;;;;;5013640;28;20464;-78
2022/01/26 07:59:55;;;;;;;90.03;33.92;;;2.40;99.90;;;;;;5013228;28;20921;-78
2022/01/26 08:02:21;;;;;;;93.93;35.00;;;2.40;99.90;;;;;;5031013;28;20116;-78
2022/01/26 08:04:47;;;;;;;100.30;36.88;;;2.40;99.90;;;;;;5031055;28;20041;-79
2022/01/26 08:07:13;;;;;;;109.22;34.97;;;2.40;99.90;;;;;;5013061;28;20155;-79
2022/01/26 08:09:43;;;;;;;103.55;36.15;;;2.50;99.90;;;;;;5030730;28;20136;-81
2022/01/26 08:12:14;;;;;;;105.28;36.40;;;2.50;99.90;;;;;;5030799;28;20393;-87
2022/01/26 08:14:41;;;;;;;101.20;35.42;;;2.50;99.90;;;;;;5030572;28;20041;-82
2022/01/26 08:17:07;;;;;;;107.10;37.83;;;3.50;99.90;;;;;;5013139;28;20095;-79
2022/01/26 08:19:33;;;;;;;110.97;38.33;;;2.50;99.90;;;;;;5030628;28;20113;-81
2022/01/26 08:22:01;;;;;;;104.13;37.17;;;2.50;99.90;;;;;;5018145;28;20122;-76
2022/01/26 08:24:30;;;;;;;106.82;38.08;;;2.50;99.90;;;;;;4993256;28;20084;-80
2022/01/26 08:27:06;;;;;;;116.07;37.58;;;2.50;99.90;;;;;;5010858;28;20149;-79
2022/01/26 08:29:41;;;;;;;113.97;37.90;;;2.60;99.90;;;;;;5010641;28;20578;-81
2022/01/26 08:32:07;;;;;;;115.15;38.47;;;2.60;99.90;;;;;;5010975;28;20397;-81
2022/01/26 08:34:33;;;;;;;122.30;39.88;;;3.40;99.90;;;;;;5010317;28;20062;-80
2022/01/26 08:36:59;;;;;;;115.40;39.78;;;2.60;99.90;;;;;;5010461;28;20046;-83
2022/01/26 08:39:25;;;;;;;115.18;40.47;;;2.60;99.90;;;;;;5010616;28;20054;-78
2022/01/26 08:41:51;;;;;;;112.97;38.50;;;2.70;99.90;;;;;;5010398;28;20121;-78
2022/01/26 08:44:17;;;;;;;122.80;39.88;;;2.70;99.90;;;;;;4992671;28;20061;-83
2022/01/26 08:46:43;;;;;;;106.90;37.45;;;2.70;99.90;;;;;;5010400;28;20054;-84
2022/01/26 08:49:09;;;;;;;111.85;39.35;;;2.70;99.90;;;;;;5009996;28;20052;-83
2022/01/26 08:51:36;;;;;;;117.78;40.92;;;2.70;99.90;;;;;;5010130;28;20045;-80
2022/01/26 08:54:02;;;;;;;106.00;36.67;;;2.70;99.90;;;;;;5010444;28;20046;-78
2022/01/26 08:56:27;;;;;;;115.90;40.47;;;2.80;99.90;;;;;;5010265;28;20057;-79
2022/01/26 08:58:54;;;;;;;115.22;36.50;;;2.80;99.90;;;;;;4992558;28;20134;-87
2022/01/26 09:01:20;;;;;;;114.10;36.80;;;2.80;99.90;;;;;;5010576;28;20081;-83
2022/01/26 09:03:46;;;;;;;108.13;37.88;;;2.90;99.90;;;;;;5010167;28;20129;-78
2022/01/26 09:06:12;;;;;;;94.18;34.60;;;2.90;99.90;;;;;;5009236;28;20137;-79
2022/01/26 09:08:40;;;;;;;100.22;35.45;;;2.90;99.90;;;;;;5009807;28;20158;-78
2022/01/26 09:11:08;;;;;;;91.70;34.70;;;3.00;99.90;;;;;;5009415;28;20089;-80
2022/01/26 09:13:34;;;;;;;91.30;34.35;;;3.00;99.90;;;;;;5010203;28;20042;-79
2022/01/26 09:16:04;;;;;;;80.55;30.40;;;3.00;99.90;;;;;;5010271;28;20054;-81
2022/01/26 09:18:40;;;;;;;93.88;33.00;;;3.00;99.90;;;;;;5010115;28;20488;-79
2022/01/26 09:21:06;;;;;;;89.18;30.80;;;3.10;99.90;;;;;;5010148;28;20163;-79
2022/01/26 09:23:33;;;;;;;96.43;33.83;;;3.10;99.90;;;;;;5009990;28;20119;-78
2022/01/26 09:25:58;;;;;;;88.28;34.30;;;3.20;99.90;;;;;;5009945;28;20500;-80
2022/01/26 09:28:25;;;;;;;91.97;36.00;;;3.50;99.90;;;;;;4992447;28;20053;-81
2022/01/26 09:30:51;;;;;;;86.28;33.55;;;3.20;99.90;;;;;;5009561;28;20046;-82
2022/01/26 09:33:17;;;;;;;89.05;34.90;;;3.20;99.90;;;;;;5010105;28;20539;-79
2022/01/26 09:35:44;;;;;;;85.07;33.97;;;3.20;99.90;;;;;;4992616;28;20056;-81
2022/01/26 09:38:10;;;;;;;90.00;33.22;;;3.30;99.90;;;;;;5010035;28;20052;-79
2022/01/26 09:40:36;;;;;;;90.55;31.95;;;3.30;99.90;;;;;;5010009;28;20060;-83
2022/01/26 09:43:02;;;;;;;87.03;34.60;;;3.30;99.90;;;;;;5010186;28;20437;-87
2022/01/26 09:45:34;;;;;;;89.97;35.05;;;3.30;99.90;;;;;;5008991;28;20042;-79
2022/01/26 09:48:00;;;;;;;93.47;37.03;;;3.30;99.90;;;;;;5009811;28;20049;-78
2022/01/26 09:50:26;;;;;;;91.65;35.22;;;3.40;99.90;;;;;;5009348;28;20050;-78
2022/01/26 09:52:54;;;;;;;83.93;32.13;;;3.40;99.90;;;;;;4992181;28;20412;-80
2022/01/26 09:55:19;;;;;;;81.70;30.38;;;4.20;99.90;;;;;;4992258;28;20536;-79
2022/01/26 09:57:45;;;;;;;88.32;35.55;;;3.40;99.90;;;;;;5009911;28;20121;-83
2022/01/26 10:00:11;;;;;;;83.88;30.73;;;3.40;99.90;;;;;;5009452;28;20046;-77
2022/01/26 10:02:39;;;;;;;83.15;33.72;;;3.50;99.90;;;;;;4991514;28;20069;-86
2022/01/26 10:05:08;;;;;;;86.65;34.67;;;3.70;99.90;;;;;;5009676;28;20049;-80
2022/01/26 10:07:54;;;;;;;83.32;32.47;;;3.50;99.90;;;;;;5009706;28;20041;-79
2022/01/26 10:15:26;;;;;;;91.05;34.60;;;3.50;99.90;;;;;;5009752;28;20077;-81
2022/01/26 10:18:55;;;;;;;83.97;30.00;;;3.50;99.90;;;;;;4948814;29;20533;-80
2022/01/26 10:21:21;;;;;;;85.07;34.30;;;3.60;99.90;;;;;;4950663;28;20059;-78
2022/01/26 10:23:47;;;;;;;81.10;30.98;;;3.60;99.90;;;;;;4952288;29;20115;-82
2022/01/26 10:26:15;;;;;;;81.03;31.95;;;3.60;99.90;;;;;;4952501;29;20047;-78
2022/01/26 10:28:48;;;;;;;79.65;30.42;;;3.60;99.90;;;;;;4952599;29;20047;-77
2022/01/26 10:31:16;;;;;;;92.43;35.85;;;3.70;99.90;;;;;;4936309;29;20058;-78
2022/01/26 10:34:06;;;;;;;87.47;34.85;;;3.70;99.90;;;;;;4952277;29;20380;-82
2022/01/26 10:36:39;;;;;;;97.55;32.75;;;3.70;99.90;;;;;;4936282;29;20492;-79
2022/01/26 10:39:08;;;;;;;82.13;29.58;;;3.70;99.90;;;;;;4951990;29;20079;-79
2022/01/26 10:41:35;;;;;;;81.75;29.65;;;3.70;99.90;;;;;;4951770;29;20047;-82
2022/01/26 10:44:02;;;;;;;88.00;30.88;;;3.80;99.90;;;;;;4951722;29;20055;-85
2022/01/26 10:46:37;;;;;;;77.82;28.70;;;3.80;99.90;;;;;;4935708;29;20147;-82
2022/01/26 10:54:37;;;;;;;87.18;32.80;;;3.90;99.90;;;;;;4935982;29;20055;-84
2022/01/26 10:57:09;;;;;;;70.82;29.65;;;3.80;99.90;;;;;;4994706;28;20050;-80
2022/01/26 10:59:38;;;;;;;76.20;26.48;;;3.90;99.90;;;;;;5012412;28;20523;-79
2022/01/26 11:02:05;;;;;;;76.25;29.23;;;3.90;99.90;;;;;;5012396;28;20128;-82
2022/01/26 11:04:36;;;;;;;70.63;28.75;;;3.90;99.90;;;;;;5012158;28;20045;-83
2022/01/26 11:07:03;;;;;;;74.75;27.73;;;3.90;99.90;;;;;;5012437;28;20042;-80
2022/01/26 11:09:31;;;;;;;73.50;28.95;;;3.90;99.90;;;;;;5012075;28;20081;-85
2022/01/26 11:12:02;;;;;;;71.53;26.20;;;3.90;99.90;;;;;;4994698;28;20127;-81
2022/01/26 11:14:39;;;;;;;74.35;28.00;;;3.90;99.90;;;;;;4994741;28;20096;-79
2022/01/26 11:17:05;;;;;;;73.30;30.42;;;3.90;99.90;;;;;;5012106;28;20042;-85
2022/01/26 11:19:46;;;;;;;78.13;30.67;;;4.60;99.90;;;;;;5012409;28;20358;-80
2022/01/26 11:22:14;;;;;;;75.57;28.88;;;3.80;99.90;;;;;;5011919;28;20735;-78
2022/01/26 11:24:45;;;;;;;79.32;28.45;;;3.80;99.90;;;;;;5012125;28;20097;-79
2022/01/26 11:27:12;;;;;;;78.30;28.00;;;4.60;99.90;;;;;;5012166;28;20057;-83
2022/01/26 11:29:42;;;;;;;64.10;26.92;;;3.90;99.90;;;;;;5009776;28;20068;-78
2022/01/26 11:32:18;;;;;;;80.88;28.50;;;3.90;99.90;;;;;;5011478;28;20096;-88
2022/01/26 11:34:47;;;;;;;83.00;29.42;;;3.90;99.90;;;;;;5012088;28;20046;-84
2022/01/26 11:37:15;;;;;;;70.20;26.25;;;3.90;99.90;;;;;;5011848;28;20092;-80
2022/01/26 11:45:15;;;;;;;93.18;32.00;;;3.90;99.90;;;;;;5011877;28;20121;-79
2022/01/26 11:47:56;;;;;;;88.18;30.63;;;4.00;99.90;;;;;;5011857;28;20125;-82
2022/01/26 11:50:22;;;;;;;83.75;30.95;;;4.00;99.90;;;;;;4993684;28;20556;-80
2022/01/26 11:53:08;;;;;;;83.97;32.25;;;4.00;99.90;;;;;;5011220;28;20045;-80
2022/01/26 11:55:57;;;;;;;84.80;30.50;;;3.90;99.90;;;;;;5011369;28;20428;-81
2022/01/26 11:58:30;;;;;;;81.57;27.40;;;3.90;99.90;;;;;;4991787;28;20485;-82
2022/01/26 12:01:16;;;;;;;77.15;26.48;;;3.90;99.90;;;;;;4992048;28;20046;-84
2022/01/26 12:03:57;;;;;;;79.18;29.73;;;3.90;99.90;;;;;;4992211;28;20046;-81
2022/01/26 12:06:27;;;;;;;71.60;29.55;;;3.90;99.90;;;;;;4991784;28;20500;-87
2022/01/26 12:08:56;;;;;;;85.50;29.10;;;3.90;99.90;;;;;;4991824;28;20404;-86
2022/01/26 12:11:23;;;;;;;71.10;27.45;;;4.00;99.90;;;;;;4992031;28;20046;-78
2022/01/26 12:13:58;;;;;;;73.93;28.25;;;3.90;99.90;;;;;;4991768;28;20081;-81
2022/01/26 12:16:37;;;;;;;71.30;26.85;;;3.90;99.90;;;;;;4999687;28;20045;-81
2022/01/26 12:38:42;;;;;;;84.18;27.70;;;4.10;99.90;;;;;;5010684;28;20448;-83
2022/01/26 12:41:21;;;;;;;83.55;30.88;;;4.10;99.90;;;;;;5010527;28;20037;-82
2022/01/26 12:43:55;;;;;;;98.72;31.00;;;4.00;99.90;;;;;;5010102;28;20054;-79
2022/01/26 12:46:24;;;;;;;80.93;27.30;;;4.00;99.90;;;;;;5010509;28;20060;-82
2022/01/26 12:48:52;;;;;;;76.90;30.27;;;5.00;99.90;;;;;;5010388;28;20340;-85
2022/01/26 12:51:18;;;;;;;81.25;29.63;;;5.00;99.90;;;;;;5010428;28;20112;-87
2022/01/26 12:53:44;;;;;;;82.10;31.23;;;4.10;99.90;;;;;;5010364;28;20060;-82
2022/01/26 12:56:14;;;;;;;78.20;29.38;;;4.10;99.90;;;;;;5010188;28;20041;-80
2022/01/26 12:58:41;;;;;;;74.28;27.95;;;4.10;99.90;;;;;;5010527;28;20396;-80
2022/01/26 13:01:18;;;;;;;81.10;29.08;;;4.10;99.90;;;;;;5010265;28;20056;-86
2022/01/26 13:03:46;;;;;;;102.68;29.25;;;4.10;99.90;;;;;;5010362;28;20080;-81
2022/01/26 13:06:23;;;;;;;75.47;28.02;;;4.10;99.90;;;;;;5010436;28;20053;-87
2022/01/26 13:08:57;;;;;;;69.55;27.23;;;4.20;99.90;;;;;;5009539;28;20042;-82
2022/01/26 13:11:31;;;;;;;72.70;27.58;;;4.20;99.90;;;;;;5011030;28;20060;-76
2022/01/26 13:14:27;;;;;;;74.22;29.45;;;4.20;99.90;;;;;;5010074;28;20045;-81
2022/01/26 13:17:11;;;;;;;72.18;25.80;;;4.30;99.90;;;;;;5009393;28;20037;-85
2022/01/26 13:25:35;;;;;;;59.20;26.05;;;4.40;99.90;;;;;;4992239;28;20054;-81
2022/01/26 13:46:47;;;;;;;65.35;23.98;;;4.60;99.90;;;;;;5009973;28;20092;-89
2022/01/26 13:49:19;;;;;;;62.78;23.45;;;4.60;99.90;;;;;;5009894;28;20129;-85
2022/01/26 13:54:58;;;;;;;61.00;25.55;;;4.60;99.90;;;;;;4992798;28;20412;-78
2022/01/26 14:00:15;;;;;;;57.55;23.20;;;4.60;99.90;;;;;;4953120;29;20054;-85
2022/01/26 14:02:41;;;;;;;64.18;22.98;;;4.70;99.90;;;;;;4952754;29;20062;-83
2022/01/26 14:05:08;;;;;;;56.20;22.90;;;4.70;99.90;;;;;;4952674;29;20055;-81
2022/01/26 14:07:34;;;;;;;63.33;24.77;;;4.70;99.90;;;;;;4952706;29;20070;-78
2022/01/26 14:09:59;;;;;;;66.07;24.10;;;4.70;99.90;;;;;;4952542;29;20051;-86
2022/01/26 14:12:30;;;;;;;52.67;22.65;;;4.70;99.90;;;;;;4952644;29;20047;-84
2022/01/26 14:14:56;;;;;;;63.15;24.55;;;4.70;99.90;;;;;;4952574;29;20067;-85
2022/01/26 14:23:18;;;;;;;57.50;22.83;;;4.70;99.90;;;;;;4914607;29;20067;-84
2022/01/26 14:25:47;;;;;;;59.88;22.35;;;4.70;99.90;;;;;;4933286;29;20048;-79
2022/01/26 14:28:15;;;;;;;65.15;24.77;;;4.70;99.90;;;;;;4927604;29;20107;-83
2022/01/26 14:31:37;;;;;;;61.58;24.25;;;4.70;99.90;;;;;;4914197;29;20067;-81
2022/01/26 14:54:59;;;;;;;51.88;20.90;;;4.80;99.90;;;;;;4951607;29;20499;-78
2022/01/26 15:00:37;;;;;;;53.50;23.15;;;4.80;99.90;;;;;;5012166;28;20642;-81
2022/01/26 15:40:27;;;;;;;53.30;20.90;;;4.90;99.90;;;;;;5011871;28;20050;-81
2022/01/26 15:51:00;;;;;;;64.65;23.30;;;5.00;99.90;;;;;;5011500;28;20062;-86
2022/01/26 16:06:56;;;;;;;51.90;21.95;;;5.00;99.90;;;;;;5011491;28;20053;-83
2022/01/26 16:19:19;;;;;;;49.55;21.73;;;5.00;99.90;;;;;;4992295;28;20516;-87
2022/01/26 16:37:40;;;;;;;57.17;21.52;;;5.00;99.90;;;;;;5010884;28;20057;-87
2022/01/26 17:48:19;;;;;;;53.33;21.77;;;5.60;99.90;;;;;;4953358;28;20059;-81
2022/01/26 18:26:07;;;;;;;48.28;19.25;;;5.40;99.90;;;;;;4933452;29;20059;-83
2022/01/26 18:50:08;;;;;;;39.17;14.45;;;5.60;99.90;;;;;;5013119;28;20058;-83
2022/01/26 18:52:37;;;;;;;34.97;13.80;;;5.60;99.90;;;;;;4995765;28;20046;-77
2022/01/26 18:55:02;;;;;;;37.40;17.42;;;5.70;99.90;;;;;;5013105;28;20497;-77
2022/01/26 18:57:28;;;;;;;33.60;13.88;;;5.70;99.90;;;;;;5013731;28;20121;-86
2022/01/26 18:59:54;;;;;;;40.13;16.50;;;6.40;99.90;;;;;;5012996;28;20052;-86
2022/01/26 19:02:24;;;;;;;39.58;14.60;;;5.70;99.90;;;;;;5013231;28;20044;-85
2022/01/26 19:04:49;;;;;;;36.72;15.90;;;5.70;99.90;;;;;;4995671;28;20068;-87
2022/01/26 19:07:16;;;;;;;34.85;14.73;;;6.10;99.90;;;;;;5012891;28;20042;-75
2022/01/26 19:09:49;;;;;;;40.60;16.45;;;5.70;99.90;;;;;;5012931;28;20133;-88
2022/01/26 19:12:17;;;;;;;34.67;14.73;;;6.60;99.90;;;;;;5013141;28;20050;-78
2022/01/26 19:14:49;;;;;;;36.88;16.05;;;5.80;99.90;;;;;;5012689;28;20370;-81
2022/01/26 19:20:03;;;;;;;38.10;14.57;;;5.80;99.90;;;;;;5013342;28;20074;-82
2022/01/26 19:22:47;;;;;;;34.15;14.15;;;5.80;99.90;;;;;;5012778;28;20633;-80
2022/01/26 19:52:10;;;;;;;36.53;14.70;;;5.90;99.90;;;;;;4970755;28;20476;-83
2022/01/26 19:54:41;;;;;;;39.47;16.45;;;5.90;99.90;;;;;;4970682;28;20580;-86